Item Display Status Humidity-temperature Sensor

Elevation Above Sea Level: 3 m

 

Deployed Sensor

  • Serial Number: 20370362
  • NDBC Property Number: 43932
  • Start Date: 10/5/2022 (01:08:09 Z)
  • End Date: Currently Active
Relative Humidity [%]     6 entries per hour
Showing data from 2/23/2024 (19:00:00 Z) to 2/22/2024 (00:00:01 Z)
Previous Next [ Day | 3-Days | 7-Days ]
First Last
Prev [ Day | 3-Days | 7-Days ] Next
First Last

Start Time:     :
End Time:     :     
Time (in GMT) :00 :50 :40 :30 :20 :10
Previous Next [ Day | 3-Days | 7-Days ]
First Last
Prev [ Day | 3-Days | 7-Days ] Next
First Last


123 => good data
MM => data is determined as missing
-- => data not received/configured
Back to Top Back to Top
2/23/2024 19:00 to 18:10 82.74 83.93 84.61 84.16 83.42 83.87
2/23/2024 18:00 to 17:10 84.28 84.24 84.07 84.11 84.26 83.68
2/23/2024 17:00 to 16:10 82.88 82.23 82.06 82.29 82.60 83.38
2/23/2024 16:00 to 15:10 83.60 83.81 84.18 85.02 84.73 83.27
2/23/2024 15:00 to 14:10 82.92 82.97 82.88 82.47 82.47 82.49
2/23/2024 14:00 to 13:10 82.92 82.70 82.76 83.19 83.13 83.03
2/23/2024 13:00 to 12:10 82.99 82.88 82.68 82.84 83.27 83.25
2/23/2024 12:00 to 11:10 82.35 82.10 82.41 83.05 83.29 83.75
2/23/2024 11:00 to 10:10 83.46 83.54 82.95 81.24 81.72 82.29
2/23/2024 10:00 to 9:10 82.29 82.15 81.84 81.80 81.14 81.65
2/23/2024 09:00 to 8:10 81.49 80.96 80.59 80.83 80.87 81.39
2/23/2024 08:00 to 7:10 81.49 81.37 81.28 81.35 81.59 81.20
2/23/2024 07:00 to 6:10 81.39 81.49 81.18 81.16 80.83 80.67
2/23/2024 06:00 to 5:10 80.44 80.83 81.65 81.35 81.43 81.94
2/23/2024 05:00 to 4:10 82.68 82.66 82.27 82.29 82.53 82.41
2/23/2024 04:00 to 3:10 81.88 82.54 82.37 82.08 81.82 81.47
2/23/2024 03:00 to 2:10 81.84 82.25 83.31 81.80 80.53 80.77
2/23/2024 02:00 to 1:10 80.71 80.81 81.37 80.49 79.32 79.32
2/23/2024 01:00 to 0:10 79.44 79.89 80.03 79.97 80.10 80.49
2/23/2024 00:00 to 23:10 80.83 80.83 81.24 82.08 82.72 82.97
2/22/2024 23:00 to 22:10 82.56 82.47 82.66 82.49 82.10 81.61
2/22/2024 22:00 to 21:10 81.41 80.79 81.06 81.16 81.24 81.33
2/22/2024 21:00 to 20:10 81.51 82.17 82.12 82.15 81.84 81.92
2/22/2024 20:00 to 19:10 82.17 82.10 82.06 81.71 81.74 81.78
2/22/2024 19:00 to 18:10 81.51 80.98 80.73 80.65 80.57 80.49
2/22/2024 18:00 to 17:10 80.55 80.28 81.51 82.70 82.93 82.17
2/22/2024 17:00 to 16:10 81.92 81.55 80.61 80.67 80.79 80.69
2/22/2024 16:00 to 15:10 80.16 80.61 80.22 80.30 80.44 80.44
2/22/2024 15:00 to 14:10 80.51 80.12 79.89 79.81 79.91 80.05
2/22/2024 14:00 to 13:10 79.83 80.49 80.49 79.91 79.48 79.44
2/22/2024 13:00 to 12:10 79.46 79.54 78.89 79.03 79.48 79.91
2/22/2024 12:00 to 11:10 80.30 80.36 81.04 80.18 80.14 79.97
2/22/2024 11:00 to 10:10 79.75 78.82 78.25 78.29 77.80 78.00
2/22/2024 10:00 to 9:10 77.57 78.72 77.90 78.54 79.52 79.44
2/22/2024 09:00 to 8:10 79.54 79.11 79.34 78.84 78.70 79.52
2/22/2024 08:00 to 7:10 79.58 78.93 79.13 78.66 78.60 77.98
2/22/2024 07:00 to 6:10 77.78 77.43 77.04 77.16 77.10 77.14
2/22/2024 06:00 to 5:10 76.51 75.28 75.07 75.77 75.40 74.42
2/22/2024 05:00 to 4:10 74.05 75.05 75.42 74.79 74.31 74.31
2/22/2024 04:00 to 3:10 73.51 73.27 74.01 75.18 75.03 74.97
2/22/2024 03:00 to 2:10 74.97 75.07 76.82 75.09 74.93 74.56
2/22/2024 02:00 to 1:10 75.15 75.11 74.33 75.22 75.17 74.46
2/22/2024 01:00 to 0:10 75.22 75.81 75.46 76.98 76.96 77.51

 

 

 

Air Temperature [°C]     6 entries per hour
Showing data from 2/23/2024 (19:00:00 Z) to 2/22/2024 (00:00:01 Z)
Previous Next [ Day | 3-Days | 7-Days ]
First Last
Prev [ Day | 3-Days | 7-Days ] Next
First Last

Start Time:     :
End Time:     :     
Time (in GMT) :00 :50 :40 :30 :20 :10
Previous Next [ Day | 3-Days | 7-Days ]
First Last
Prev [ Day | 3-Days | 7-Days ] Next
First Last


123 => good data
MM => data is determined as missing
-- => data not received/configured
Back to Top Back to Top
2/23/2024 19:00 to 18:10 28.54 28.02 27.75 27.44 28.53 28.62
2/23/2024 18:00 to 17:10 28.57 28.69 28.66 28.69 28.49 28.24
2/23/2024 17:00 to 16:10 28.74 28.85 28.75 28.59 28.53 28.53
2/23/2024 16:00 to 15:10 28.53 28.57 28.40 28.40 28.09 28.60
2/23/2024 15:00 to 14:10 28.61 28.66 28.71 28.64 28.64 28.59
2/23/2024 14:00 to 13:10 28.65 28.65 28.63 28.68 28.64 28.58
2/23/2024 13:00 to 12:10 28.57 28.69 28.67 28.70 28.51 28.83
2/23/2024 12:00 to 11:10 28.95 28.91 28.82 28.78 28.69 28.81
2/23/2024 11:00 to 10:10 28.77 28.82 28.99 29.00 28.99 29.02
2/23/2024 10:00 to 9:10 29.03 29.21 29.09 29.16 29.08 29.04
2/23/2024 09:00 to 8:10 29.05 29.25 29.23 29.09 29.24 29.20
2/23/2024 08:00 to 7:10 29.11 29.17 29.31 29.10 29.24 29.19
2/23/2024 07:00 to 6:10 29.31 29.21 29.35 29.26 29.29 29.36
2/23/2024 06:00 to 5:10 29.37 29.24 29.30 29.39 29.21 29.13
2/23/2024 05:00 to 4:10 29.25 29.43 29.22 29.21 29.27 29.27
2/23/2024 04:00 to 3:10 29.37 29.06 29.31 29.30 29.42 29.28
2/23/2024 03:00 to 2:10 29.23 28.98 29.04 29.28 29.56 29.47
2/23/2024 02:00 to 1:10 29.60 29.53 29.38 29.54 29.80 29.55
2/23/2024 01:00 to 0:10 29.57 29.44 29.62 29.52 29.47 29.38
2/23/2024 00:00 to 23:10 29.40 29.41 29.37 29.31 29.18 29.19
2/22/2024 23:00 to 22:10 29.34 29.23 29.12 29.20 29.23 29.25
2/22/2024 22:00 to 21:10 29.43 29.27 29.44 29.29 29.46 29.41
2/22/2024 21:00 to 20:10 29.33 29.23 29.21 29.25 29.22 29.22
2/22/2024 20:00 to 19:10 29.24 29.35 29.45 29.40 29.36 29.24
2/22/2024 19:00 to 18:10 29.26 29.34 29.38 29.31 29.27 29.32
2/22/2024 18:00 to 17:10 29.36 29.39 28.97 28.80 28.83 28.70
2/22/2024 17:00 to 16:10 28.69 28.98 28.91 28.80 28.83 28.94
2/22/2024 16:00 to 15:10 28.76 28.91 28.93 29.00 28.89 28.97
2/22/2024 15:00 to 14:10 29.13 28.83 29.00 28.87 28.94 28.96
2/22/2024 14:00 to 13:10 28.83 28.93 28.79 29.05 28.66 28.76
2/22/2024 13:00 to 12:10 28.75 28.91 28.80 28.80 28.82 28.88
2/22/2024 12:00 to 11:10 29.02 28.91 28.84 29.09 28.89 28.97
2/22/2024 11:00 to 10:10 28.84 29.02 28.82 29.13 29.15 29.11
2/22/2024 10:00 to 9:10 28.99 29.20 28.92 29.05 29.18 28.96
2/22/2024 09:00 to 8:10 29.12 29.07 29.09 29.02 28.98 29.13
2/22/2024 08:00 to 7:10 29.09 29.05 29.03 29.13 29.05 29.16
2/22/2024 07:00 to 6:10 29.24 29.10 29.24 29.07 29.07 29.11
2/22/2024 06:00 to 5:10 29.31 29.25 29.28 29.23 29.50 29.46
2/22/2024 05:00 to 4:10 29.36 29.36 29.23 29.42 29.62 29.74
2/22/2024 04:00 to 3:10 29.71 29.64 29.72 29.75 29.74 29.76
2/22/2024 03:00 to 2:10 29.69 29.75 29.52 29.58 29.53 29.51
2/22/2024 02:00 to 1:10 29.56 29.70 29.48 29.51 29.55 29.62
2/22/2024 01:00 to 0:10 29.51 29.54 29.40 29.25 29.25 29.33